sensor_id;sensor_type;location;lat;lon;timestamp;temperature;humidity
2647;DHT22;1333;50.958;6.770;2023-09-08T00:00:50;18.40;99.90
2647;DHT22;1333;50.958;6.770;2023-09-08T00:03:15;18.40;99.90
2647;DHT22;1333;50.958;6.770;2023-09-08T00:05:41;18.50;99.90
2647;DHT22;1333;50.958;6.770;2023-09-08T00:08:07;18.50;99.90
2647;DHT22;1333;50.958;6.770;2023-09-08T00:10:32;18.60;99.90
2647;DHT22;1333;50.958;6.770;2023-09-08T00:12:58;18.60;99.90
2647;DHT22;1333;50.958;6.770;2023-09-08T00:15:23;18.60;99.90
2647;DHT22;1333;50.958;6.770;2023-09-08T00:17:49;18.50;99.90
2647;DHT22;1333;50.958;6.770;2023-09-08T00:20:14;18.50;99.90
2647;DHT22;1333;50.958;6.770;2023-09-08T00:22:40;18.50;99.90
2647;DHT22;1333;50.958;6.770;2023-09-08T00:25:06;18.50;99.90
2647;DHT22;1333;50.958;6.770;2023-09-08T00:27:32;18.40;99.90
2647;DHT22;1333;50.958;6.770;2023-09-08T00:29:58;18.50;99.90
2647;DHT22;1333;50.958;6.770;2023-09-08T00:32:23;18.50;99.90
2647;DHT22;1333;50.958;6.770;2023-09-08T00:34:49;18.50;99.90
2647;DHT22;1333;50.958;6.770;2023-09-08T00:37:14;18.40;99.90
2647;DHT22;1333;50.958;6.770;2023-09-08T00:39:40;18.30;99.90
2647;DHT22;1333;50.958;6.770;2023-09-08T00:42:06;18.30;99.90
2647;DHT22;1333;50.958;6.770;2023-09-08T00:44:32;18.30;99.90
2647;DHT22;1333;50.958;6.770;2023-09-08T00:46:58;18.30;99.90
2647;DHT22;1333;50.958;6.770;2023-09-08T00:49:24;18.20;99.90
2647;DHT22;1333;50.958;6.770;2023-09-08T00:51:49;18.30;99.90
2647;DHT22;1333;50.958;6.770;2023-09-08T00:54:16;18.30;99.90
2647;DHT22;1333;50.958;6.770;2023-09-08T00:56:42;18.30;99.90
2647;DHT22;1333;50.958;6.770;2023-09-08T00:59:07;18.20;99.90
2647;DHT22;1333;50.958;6.770;2023-09-08T01:01:33;18.30;99.90
2647;DHT22;1333;50.958;6.770;2023-09-08T01:04:00;18.20;99.90
2647;DHT22;1333;50.958;6.770;2023-09-08T01:06:26;18.20;99.90
2647;DHT22;1333;50.958;6.770;2023-09-08T01:08:52;18.10;99.90
2647;DHT22;1333;50.958;6.770;2023-09-08T01:11:19;18.10;99.90
2647;DHT22;1333;50.958;6.770;2023-09-08T01:13:45;18.10;99.90
2647;DHT22;1333;50.958;6.770;2023-09-08T01:16:10;18.00;99.90
2647;DHT22;1333;50.958;6.770;2023-09-08T01:18:36;18.00;99.90
2647;DHT22;1333;50.958;6.770;2023-09-08T01:21:33;18.00;99.90
2647;DHT22;1333;50.958;6.770;2023-09-08T01:26:51;17.90;99.90
2647;DHT22;1333;50.958;6.770;2023-09-08T01:29:16;17.80;99.90
2647;DHT22;1333;50.958;6.770;2023-09-08T01:31:42;17.80;99.90
2647;DHT22;1333;50.958;6.770;2023-09-08T01:34:09;17.70;99.90
2647;DHT22;1333;50.958;6.770;2023-09-08T01:36:35;17.70;99.90
2647;DHT22;1333;50.958;6.770;2023-09-08T01:39:01;17.70;99.90
2647;DHT22;1333;50.958;6.770;2023-09-08T01:41:27;17.70;99.90
2647;DHT22;1333;50.958;6.770;2023-09-08T01:43:52;17.70;99.90
2647;DHT22;1333;50.958;6.770;2023-09-08T01:46:18;17.60;99.90
2647;DHT22;1333;50.958;6.770;2023-09-08T01:48:43;17.60;99.90
2647;DHT22;1333;50.958;6.770;2023-09-08T01:51:09;17.50;99.90
2647;DHT22;1333;50.958;6.770;2023-09-08T01:53:35;17.50;99.90
2647;DHT22;1333;50.958;6.770;2023-09-08T01:56:01;17.50;99.90
2647;DHT22;1333;50.958;6.770;2023-09-08T01:58:26;17.40;99.90
2647;DHT22;1333;50.958;6.770;2023-09-08T02:00:52;17.40;99.90
2647;DHT22;1333;50.958;6.770;2023-09-08T02:03:17;17.30;99.90
2647;DHT22;1333;50.958;6.770;2023-09-08T02:05:45;17.30;99.90
2647;DHT22;1333;50.958;6.770;2023-09-08T02:08:10;17.20;99.90
2647;DHT22;1333;50.958;6.770;2023-09-08T02:10:38;17.20;99.90
2647;DHT22;1333;50.958;6.770;2023-09-08T02:13:04;17.20;99.90
2647;DHT22;1333;50.958;6.770;2023-09-08T02:15:29;17.20;99.90
2647;DHT22;1333;50.958;6.770;2023-09-08T02:17:56;17.10;99.90
2647;DHT22;1333;50.958;6.770;2023-09-08T02:20:21;17.10;99.90
2647;DHT22;1333;50.958;6.770;2023-09-08T02:22:49;17.20;99.90
2647;DHT22;1333;50.958;6.770;2023-09-08T02:25:15;17.20;99.90
2647;DHT22;1333;50.958;6.770;2023-09-08T02:27:41;17.20;99.90
2647;DHT22;1333;50.958;6.770;2023-09-08T02:30:06;17.20;99.90
2647;DHT22;1333;50.958;6.770;2023-09-08T02:32:32;17.20;99.90
2647;DHT22;1333;50.958;6.770;2023-09-08T02:34:58;17.10;99.90
2647;DHT22;1333;50.958;6.770;2023-09-08T02:37:23;17.10;99.90
2647;DHT22;1333;50.958;6.770;2023-09-08T02:39:49;17.10;99.90
2647;DHT22;1333;50.958;6.770;2023-09-08T02:42:14;17.10;99.90
2647;DHT22;1333;50.958;6.770;2023-09-08T02:44:40;17.10;99.90
2647;DHT22;1333;50.958;6.770;2023-09-08T02:47:05;17.10;99.90
2647;DHT22;1333;50.958;6.770;2023-09-08T02:49:31;17.10;99.90
2647;DHT22;1333;50.958;6.770;2023-09-08T02:51:57;17.10;99.90
2647;DHT22;1333;50.958;6.770;2023-09-08T02:54:23;17.00;99.90
2647;DHT22;1333;50.958;6.770;2023-09-08T02:56:48;17.00;99.90
2647;DHT22;1333;50.958;6.770;2023-09-08T02:59:14;17.00;99.90
2647;DHT22;1333;50.958;6.770;2023-09-08T03:01:39;17.00;99.90
2647;DHT22;1333;50.958;6.770;2023-09-08T03:04:05;17.00;99.90
2647;DHT22;1333;50.958;6.770;2023-09-08T03:06:31;17.00;99.90
2647;DHT22;1333;50.958;6.770;2023-09-08T03:08:58;17.00;99.90
2647;DHT22;1333;50.958;6.770;2023-09-08T03:11:24;17.00;99.90
2647;DHT22;1333;50.958;6.770;2023-09-08T03:13:49;17.00;99.90
2647;DHT22;1333;50.958;6.770;2023-09-08T03:16:15;17.00;99.90
2647;DHT22;1333;50.958;6.770;2023-09-08T03:18:41;16.90;99.90
2647;DHT22;1333;50.958;6.770;2023-09-08T03:21:07;16.80;99.90
2647;DHT22;1333;50.958;6.770;2023-09-08T03:23:40;16.80;99.90
2647;DHT22;1333;50.958;6.770;2023-09-08T03:26:06;16.70;99.90
2647;DHT22;1333;50.958;6.770;2023-09-08T03:28:32;16.80;99.90
2647;DHT22;1333;50.958;6.770;2023-09-08T03:30:58;16.70;99.90
2647;DHT22;1333;50.958;6.770;2023-09-08T03:33:23;16.70;99.90
2647;DHT22;1333;50.958;6.770;2023-09-08T03:35:49;16.70;99.90
2647;DHT22;1333;50.958;6.770;2023-09-08T03:38:14;16.70;99.90
2647;DHT22;1333;50.958;6.770;2023-09-08T03:40:40;16.70;99.90
2647;DHT22;1333;50.958;6.770;2023-09-08T03:43:06;16.70;99.90
2647;DHT22;1333;50.958;6.770;2023-09-08T03:45:31;16.70;99.90
2647;DHT22;1333;50.958;6.770;2023-09-08T03:47:57;16.70;99.90
2647;DHT22;1333;50.958;6.770;2023-09-08T03:50:22;16.70;99.90
2647;DHT22;1333;50.958;6.770;2023-09-08T03:52:48;16.70;99.90
2647;DHT22;1333;50.958;6.770;2023-09-08T03:55:13;16.70;99.90
2647;DHT22;1333;50.958;6.770;2023-09-08T03:57:39;16.60;99.90
2647;DHT22;1333;50.958;6.770;2023-09-08T04:00:05;16.60;99.90
2647;DHT22;1333;50.958;6.770;2023-09-08T04:02:32;16.60;99.90
2647;DHT22;1333;50.958;6.770;2023-09-08T04:04:58;16.50;99.90
2647;DHT22;1333;50.958;6.770;2023-09-08T04:07:23;16.50;99.90
2647;DHT22;1333;50.958;6.770;2023-09-08T04:09:49;16.50;99.90
2647;DHT22;1333;50.958;6.770;2023-09-08T04:12:14;16.50;99.90
2647;DHT22;1333;50.958;6.770;2023-09-08T04:14:41;16.40;99.90
2647;DHT22;1333;50.958;6.770;2023-09-08T04:17:06;16.40;99.90
2647;DHT22;1333;50.958;6.770;2023-09-08T04:19:32;16.40;99.90
2647;DHT22;1333;50.958;6.770;2023-09-08T04:21:57;16.30;99.90
2647;DHT22;1333;50.958;6.770;2023-09-08T04:24:23;16.30;99.90
2647;DHT22;1333;50.958;6.770;2023-09-08T04:26:48;16.30;99.90
2647;DHT22;1333;50.958;6.770;2023-09-08T04:29:14;16.20;99.90
2647;DHT22;1333;50.958;6.770;2023-09-08T04:31:39;16.20;99.90
2647;DHT22;1333;50.958;6.770;2023-09-08T04:34:05;16.20;99.90
2647;DHT22;1333;50.958;6.770;2023-09-08T04:36:30;16.20;99.90
2647;DHT22;1333;50.958;6.770;2023-09-08T04:38:56;16.20;99.90
2647;DHT22;1333;50.958;6.770;2023-09-08T04:41:22;16.20;99.90
2647;DHT22;1333;50.958;6.770;2023-09-08T04:43:47;16.20;99.90
2647;DHT22;1333;50.958;6.770;2023-09-08T04:46:13;16.20;99.90
2647;DHT22;1333;50.958;6.770;2023-09-08T04:48:38;16.10;99.90
2647;DHT22;1333;50.958;6.770;2023-09-08T04:51:04;16.00;99.90
2647;DHT22;1333;50.958;6.770;2023-09-08T04:53:29;15.90;99.90
2647;DHT22;1333;50.958;6.770;2023-09-08T04:55:55;15.90;99.90
2647;DHT22;1333;50.958;6.770;2023-09-08T04:58:20;15.90;99.90
2647;DHT22;1333;50.958;6.770;2023-09-08T05:00:46;15.80;99.90
2647;DHT22;1333;50.958;6.770;2023-09-08T05:03:11;15.80;99.90
2647;DHT22;1333;50.958;6.770;2023-09-08T05:05:37;15.90;99.90
2647;DHT22;1333;50.958;6.770;2023-09-08T05:08:04;15.90;99.90
2647;DHT22;1333;50.958;6.770;2023-09-08T05:10:29;15.90;99.90
2647;DHT22;1333;50.958;6.770;2023-09-08T05:12:55;15.80;99.90
2647;DHT22;1333;50.958;6.770;2023-09-08T05:15:20;15.90;99.90
2647;DHT22;1333;50.958;6.770;2023-09-08T05:17:46;15.90;99.90
2647;DHT22;1333;50.958;6.770;2023-09-08T05:20:12;15.90;99.90
2647;DHT22;1333;50.958;6.770;2023-09-08T05:22:38;15.90;99.90
2647;DHT22;1333;50.958;6.770;2023-09-08T05:25:04;15.90;99.90
2647;DHT22;1333;50.958;6.770;2023-09-08T05:27:30;15.90;99.90
2647;DHT22;1333;50.958;6.770;2023-09-08T05:29:56;15.90;99.90
2647;DHT22;1333;50.958;6.770;2023-09-08T05:32:22;15.90;99.90
2647;DHT22;1333;50.958;6.770;2023-09-08T05:34:47;16.00;99.90
2647;DHT22;1333;50.958;6.770;2023-09-08T05:37:13;16.00;99.90
2647;DHT22;1333;50.958;6.770;2023-09-08T05:39:38;16.10;99.90
2647;DHT22;1333;50.958;6.770;2023-09-08T05:42:04;16.20;99.90
2647;DHT22;1333;50.958;6.770;2023-09-08T05:44:29;16.20;99.90
2647;DHT22;1333;50.958;6.770;2023-09-08T05:46:55;16.30;99.90
2647;DHT22;1333;50.958;6.770;2023-09-08T05:49:20;16.50;99.90
2647;DHT22;1333;50.958;6.770;2023-09-08T05:51:46;16.60;99.90
2647;DHT22;1333;50.958;6.770;2023-09-08T05:54:11;16.70;99.90
2647;DHT22;1333;50.958;6.770;2023-09-08T05:56:38;16.80;99.90
2647;DHT22;1333;50.958;6.770;2023-09-08T05:59:03;16.90;99.90
2647;DHT22;1333;50.958;6.770;2023-09-08T06:01:30;17.00;99.90
2647;DHT22;1333;50.958;6.770;2023-09-08T06:03:56;17.20;99.90
2647;DHT22;1333;50.958;6.770;2023-09-08T06:06:21;17.60;99.90
2647;DHT22;1333;50.958;6.770;2023-09-08T06:08:47;18.10;99.90
2647;DHT22;1333;50.958;6.770;2023-09-08T06:11:13;18.50;99.90
2647;DHT22;1333;50.958;6.770;2023-09-08T06:13:39;19.00;99.90
2647;DHT22;1333;50.958;6.770;2023-09-08T06:16:04;19.80;99.90
2647;DHT22;1333;50.958;6.770;2023-09-08T06:18:30;20.50;99.90
2647;DHT22;1333;50.958;6.770;2023-09-08T06:21:08;21.40;99.90
2647;DHT22;1333;50.958;6.770;2023-09-08T06:23:34;22.30;99.90
2647;DHT22;1333;50.958;6.770;2023-09-08T06:26:00;22.60;99.90
2647;DHT22;1333;50.958;6.770;2023-09-08T06:28:26;23.10;99.90
2647;DHT22;1333;50.958;6.770;2023-09-08T06:30:53;23.80;99.90
2647;DHT22;1333;50.958;6.770;2023-09-08T06:33:18;25.00;99.90
2647;DHT22;1333;50.958;6.770;2023-09-08T06:35:45;25.40;99.90
2647;DHT22;1333;50.958;6.770;2023-09-08T06:38:11;25.90;99.90
2647;DHT22;1333;50.958;6.770;2023-09-08T06:40:36;26.10;99.90
2647;DHT22;1333;50.958;6.770;2023-09-08T06:43:02;25.70;99.90
2647;DHT22;1333;50.958;6.770;2023-09-08T06:45:27;25.50;99.90
2647;DHT22;1333;50.958;6.770;2023-09-08T06:47:53;25.50;99.90
2647;DHT22;1333;50.958;6.770;2023-09-08T06:50:21;25.20;99.90
2647;DHT22;1333;50.958;6.770;2023-09-08T06:52:47;25.00;99.90
2647;DHT22;1333;50.958;6.770;2023-09-08T06:55:13;24.40;99.90
2647;DHT22;1333;50.958;6.770;2023-09-08T06:57:42;24.00;99.90
2647;DHT22;1333;50.958;6.770;2023-09-08T07:00:08;23.70;99.90
2647;DHT22;1333;50.958;6.770;2023-09-08T07:02:33;23.40;99.90
2647;DHT22;1333;50.958;6.770;2023-09-08T07:04:59;23.40;99.90
2647;DHT22;1333;50.958;6.770;2023-09-08T07:07:24;23.20;99.90
2647;DHT22;1333;50.958;6.770;2023-09-08T07:09:50;23.10;99.90
2647;DHT22;1333;50.958;6.770;2023-09-08T07:12:16;22.90;99.90
2647;DHT22;1333;50.958;6.770;2023-09-08T07:14:41;23.10;99.90
2647;DHT22;1333;50.958;6.770;2023-09-08T07:17:07;24.00;99.90
2647;DHT22;1333;50.958;6.770;2023-09-08T07:19:32;25.00;99.90
2647;DHT22;1333;50.958;6.770;2023-09-08T07:21:57;25.90;99.90
2647;DHT22;1333;50.958;6.770;2023-09-08T07:24:23;26.50;99.90
2647;DHT22;1333;50.958;6.770;2023-09-08T07:26:49;27.10;99.90
2647;DHT22;1333;50.958;6.770;2023-09-08T07:29:16;27.70;99.90
2647;DHT22;1333;50.958;6.770;2023-09-08T07:31:41;28.60;99.90
2647;DHT22;1333;50.958;6.770;2023-09-08T07:34:07;29.70;95.10
2647;DHT22;1333;50.958;6.770;2023-09-08T07:36:32;29.80;90.20
2647;DHT22;1333;50.958;6.770;2023-09-08T07:38:59;29.00;86.30
2647;DHT22;1333;50.958;6.770;2023-09-08T07:41:24;28.50;87.60
2647;DHT22;1333;50.958;6.770;2023-09-08T07:43:50;28.50;90.10
2647;DHT22;1333;50.958;6.770;2023-09-08T07:46:16;28.10;90.00
2647;DHT22;1333;50.958;6.770;2023-09-08T07:48:41;28.10;90.70
2647;DHT22;1333;50.958;6.770;2023-09-08T07:51:07;28.40;90.30
2647;DHT22;1333;50.958;6.770;2023-09-08T07:53:32;28.10;90.00
2647;DHT22;1333;50.958;6.770;2023-09-08T07:55:58;27.50;90.20
2647;DHT22;1333;50.958;6.770;2023-09-08T07:58:23;26.80;93.60
2647;DHT22;1333;50.958;6.770;2023-09-08T08:00:49;26.50;95.50
2647;DHT22;1333;50.958;6.770;2023-09-08T08:03:15;26.60;97.40
2647;DHT22;1333;50.958;6.770;2023-09-08T08:05:40;26.70;99.20
2647;DHT22;1333;50.958;6.770;2023-09-08T08:08:06;27.30;99.90
2647;DHT22;1333;50.958;6.770;2023-09-08T08:10:33;28.30;96.60
2647;DHT22;1333;50.958;6.770;2023-09-08T08:12:58;29.40;93.30
2647;DHT22;1333;50.958;6.770;2023-09-08T08:15:38;29.70;88.30
2647;DHT22;1333;50.958;6.770;2023-09-08T08:18:07;29.80;85.80
2647;DHT22;1333;50.958;6.770;2023-09-08T08:20:33;30.40;84.90
2647;DHT22;1333;50.958;6.770;2023-09-08T08:23:02;30.80;76.40
2647;DHT22;1333;50.958;6.770;2023-09-08T08:25:28;30.70;70.00
2647;DHT22;1333;50.958;6.770;2023-09-08T08:27:53;31.90;72.40
2647;DHT22;1333;50.958;6.770;2023-09-08T08:30:19;33.00;67.30
2647;DHT22;1333;50.958;6.770;2023-09-08T08:32:45;33.30;60.70
2647;DHT22;1333;50.958;6.770;2023-09-08T08:35:11;33.80;57.50
2647;DHT22;1333;50.958;6.770;2023-09-08T08:37:39;34.50;54.80
2647;DHT22;1333;50.958;6.770;2023-09-08T08:40:06;35.90;53.20
2647;DHT22;1333;50.958;6.770;2023-09-08T08:42:33;37.30;50.00
2647;DHT22;1333;50.958;6.770;2023-09-08T08:45:00;39.00;46.10
2647;DHT22;1333;50.958;6.770;2023-09-08T08:47:27;40.30;43.10
2647;DHT22;1333;50.958;6.770;2023-09-08T08:49:56;40.90;39.70
2647;DHT22;1333;50.958;6.770;2023-09-08T08:52:22;41.80;38.70
2647;DHT22;1333;50.958;6.770;2023-09-08T08:54:47;42.70;37.50
2647;DHT22;1333;50.958;6.770;2023-09-08T08:57:13;43.30;35.90
2647;DHT22;1333;50.958;6.770;2023-09-08T08:59:39;43.10;34.80
2647;DHT22;1333;50.958;6.770;2023-09-08T09:02:08;44.00;34.30
2647;DHT22;1333;50.958;6.770;2023-09-08T09:04:37;44.70;33.80
2647;DHT22;1333;50.958;6.770;2023-09-08T09:07:03;46.00;32.80
2647;DHT22;1333;50.958;6.770;2023-09-08T09:09:29;47.10;31.70
2647;DHT22;1333;50.958;6.770;2023-09-08T09:11:54;47.60;29.60
2647;DHT22;1333;50.958;6.770;2023-09-08T09:14:20;48.70;30.60
2647;DHT22;1333;50.958;6.770;2023-09-08T09:16:47;50.20;29.50
2647;DHT22;1333;50.958;6.770;2023-09-08T09:19:23;50.50;27.90
2647;DHT22;1333;50.958;6.770;2023-09-08T09:21:57;50.80;28.10
2647;DHT22;1333;50.958;6.770;2023-09-08T09:24:37;51.80;26.80
2647;DHT22;1333;50.958;6.770;2023-09-08T09:27:07;51.30;25.60
2647;DHT22;1333;50.958;6.770;2023-09-08T09:29:34;51.70;26.10
2647;DHT22;1333;50.958;6.770;2023-09-08T09:32:06;52.00;25.60
2647;DHT22;1333;50.958;6.770;2023-09-08T09:34:34;52.10;25.50
2647;DHT22;1333;50.958;6.770;2023-09-08T09:37:00;52.70;25.40
2647;DHT22;1333;50.958;6.770;2023-09-08T09:39:26;52.50;24.50
2647;DHT22;1333;50.958;6.770;2023-09-08T09:41:56;52.30;24.30
2647;DHT22;1333;50.958;6.770;2023-09-08T09:44:23;52.90;24.50
2647;DHT22;1333;50.958;6.770;2023-09-08T09:46:50;53.20;25.00
2647;DHT22;1333;50.958;6.770;2023-09-08T09:49:16;54.40;24.90
2647;DHT22;1333;50.958;6.770;2023-09-08T09:51:47;55.50;24.90
2647;DHT22;1333;50.958;6.770;2023-09-08T09:54:13;56.40;24.00
2647;DHT22;1333;50.958;6.770;2023-09-08T09:56:40;56.90;23.40
2647;DHT22;1333;50.958;6.770;2023-09-08T09:59:09;56.90;22.20
2647;DHT22;1333;50.958;6.770;2023-09-08T10:01:37;57.40;22.00
2647;DHT22;1333;50.958;6.770;2023-09-08T10:04:03;57.50;21.60
2647;DHT22;1333;50.958;6.770;2023-09-08T10:06:32;57.00;20.80
2647;DHT22;1333;50.958;6.770;2023-09-08T10:09:00;57.00;21.50
2647;DHT22;1333;50.958;6.770;2023-09-08T10:11:28;58.00;22.50
2647;DHT22;1333;50.958;6.770;2023-09-08T10:13:57;58.40;21.30
2647;DHT22;1333;50.958;6.770;2023-09-08T10:16:27;58.80;20.60
2647;DHT22;1333;50.958;6.770;2023-09-08T10:18:58;59.20;20.30
2647;DHT22;1333;50.958;6.770;2023-09-08T10:21:26;59.00;19.80
2647;DHT22;1333;50.958;6.770;2023-09-08T10:24:18;59.30;20.40
2647;DHT22;1333;50.958;6.770;2023-09-08T10:26:55;58.60;19.40
2647;DHT22;1333;50.958;6.770;2023-09-08T10:29:23;57.70;19.10
2647;DHT22;1333;50.958;6.770;2023-09-08T10:31:49;57.00;19.50
2647;DHT22;1333;50.958;6.770;2023-09-08T10:34:15;57.70;20.50
2647;DHT22;1333;50.958;6.770;2023-09-08T10:36:41;58.10;20.30
2647;DHT22;1333;50.958;6.770;2023-09-08T10:39:31;58.70;20.50
2647;DHT22;1333;50.958;6.770;2023-09-08T10:47:13;60.10;18.90
2647;DHT22;1333;50.958;6.770;2023-09-08T10:49:40;59.10;18.00
2647;DHT22;1333;50.958;6.770;2023-09-08T10:52:08;59.30;18.70
2647;DHT22;1333;50.958;6.770;2023-09-08T10:54:50;59.50;19.00
2647;DHT22;1333;50.958;6.770;2023-09-08T10:57:17;59.20;18.60
2647;DHT22;1333;50.958;6.770;2023-09-08T10:59:58;59.50;18.70
2647;DHT22;1333;50.958;6.770;2023-09-08T11:05:10;58.80;18.30
2647;DHT22;1333;50.958;6.770;2023-09-08T11:07:37;58.20;17.80
2647;DHT22;1333;50.958;6.770;2023-09-08T11:10:04;58.40;19.20
2647;DHT22;1333;50.958;6.770;2023-09-08T11:12:30;58.10;18.40
2647;DHT22;1333;50.958;6.770;2023-09-08T11:14:56;58.40;19.40
2647;DHT22;1333;50.958;6.770;2023-09-08T11:17:26;59.20;19.30
2647;DHT22;1333;50.958;6.770;2023-09-08T11:19:52;59.70;19.00
2647;DHT22;1333;50.958;6.770;2023-09-08T11:22:18;59.70;17.90
2647;DHT22;1333;50.958;6.770;2023-09-08T11:24:44;58.70;18.20
2647;DHT22;1333;50.958;6.770;2023-09-08T11:27:11;58.60;18.50
2647;DHT22;1333;50.958;6.770;2023-09-08T11:29:36;58.50;18.20
2647;DHT22;1333;50.958;6.770;2023-09-08T11:32:03;58.40;18.90
2647;DHT22;1333;50.958;6.770;2023-09-08T11:34:31;59.00;18.90
2647;DHT22;1333;50.958;6.770;2023-09-08T11:36:57;60.00;19.50
2647;DHT22;1333;50.958;6.770;2023-09-08T11:39:25;60.50;18.30
2647;DHT22;1333;50.958;6.770;2023-09-08T11:41:51;60.80;17.60
2647;DHT22;1333;50.958;6.770;2023-09-08T11:44:18;61.10;17.70
2647;DHT22;1333;50.958;6.770;2023-09-08T11:46:44;61.70;18.50
2647;DHT22;1333;50.958;6.770;2023-09-08T11:49:11;61.70;17.40
2647;DHT22;1333;50.958;6.770;2023-09-08T11:51:36;61.90;17.90
2647;DHT22;1333;50.958;6.770;2023-09-08T11:54:03;61.00;16.50
2647;DHT22;1333;50.958;6.770;2023-09-08T11:56:29;60.20;17.00
2647;DHT22;1333;50.958;6.770;2023-09-08T11:58:55;59.70;17.50
2647;DHT22;1333;50.958;6.770;2023-09-08T12:01:21;60.20;18.20
2647;DHT22;1333;50.958;6.770;2023-09-08T12:03:54;60.90;18.30
2647;DHT22;1333;50.958;6.770;2023-09-08T12:06:23;61.60;18.40
2647;DHT22;1333;50.958;6.770;2023-09-08T12:08:49;62.30;18.00
2647;DHT22;1333;50.958;6.770;2023-09-08T12:11:14;63.10;18.10
2647;DHT22;1333;50.958;6.770;2023-09-08T12:13:40;63.70;17.70
2647;DHT22;1333;50.958;6.770;2023-09-08T12:16:21;64.10;17.10
2647;DHT22;1333;50.958;6.770;2023-09-08T12:18:50;64.30;16.80
2647;DHT22;1333;50.958;6.770;2023-09-08T12:21:16;64.50;16.80
2647;DHT22;1333;50.958;6.770;2023-09-08T12:23:49;64.80;17.50
2647;DHT22;1333;50.958;6.770;2023-09-08T12:26:15;64.90;16.70
2647;DHT22;1333;50.958;6.770;2023-09-08T12:28:42;64.70;16.80
2647;DHT22;1333;50.958;6.770;2023-09-08T12:31:12;64.70;16.80
2647;DHT22;1333;50.958;6.770;2023-09-08T12:33:37;64.80;16.70
2647;DHT22;1333;50.958;6.770;2023-09-08T12:36:23;64.60;16.30
2647;DHT22;1333;50.958;6.770;2023-09-08T12:38:50;64.10;15.80
2647;DHT22;1333;50.958;6.770;2023-09-08T12:41:17;64.00;16.50
2647;DHT22;1333;50.958;6.770;2023-09-08T12:43:42;63.60;15.90
2647;DHT22;1333;50.958;6.770;2023-09-08T12:46:08;63.70;16.40
2647;DHT22;1333;50.958;6.770;2023-09-08T12:48:34;63.70;16.50
2647;DHT22;1333;50.958;6.770;2023-09-08T12:50:59;63.80;16.50
2647;DHT22;1333;50.958;6.770;2023-09-08T12:53:25;63.80;16.50
2647;DHT22;1333;50.958;6.770;2023-09-08T12:55:50;63.60;15.70
2647;DHT22;1333;50.958;6.770;2023-09-08T12:58:16;63.10;15.90
2647;DHT22;1333;50.958;6.770;2023-09-08T13:00:45;63.10;16.30
2647;DHT22;1333;50.958;6.770;2023-09-08T13:03:11;63.10;16.30
2647;DHT22;1333;50.958;6.770;2023-09-08T13:05:36;63.10;16.50
2647;DHT22;1333;50.958;6.770;2023-09-08T13:08:04;63.20;16.90
2647;DHT22;1333;50.958;6.770;2023-09-08T13:10:29;63.20;16.70
2647;DHT22;1333;50.958;6.770;2023-09-08T13:12:55;63.10;15.60
2647;DHT22;1333;50.958;6.770;2023-09-08T13:15:20;62.40;16.00
2647;DHT22;1333;50.958;6.770;2023-09-08T13:17:46;62.10;16.40
2647;DHT22;1333;50.958;6.770;2023-09-08T13:20:11;62.00;16.70
2647;DHT22;1333;50.958;6.770;2023-09-08T13:22:37;61.70;15.20
2647;DHT22;1333;50.958;6.770;2023-09-08T13:25:03;60.40;15.50
2647;DHT22;1333;50.958;6.770;2023-09-08T13:27:29;60.10;15.60
2647;DHT22;1333;50.958;6.770;2023-09-08T13:29:54;60.20;16.60
2647;DHT22;1333;50.958;6.770;2023-09-08T13:32:32;60.30;16.60
2647;DHT22;1333;50.958;6.770;2023-09-08T13:34:57;60.10;15.80
2647;DHT22;1333;50.958;6.770;2023-09-08T13:37:23;60.00;16.70
2647;DHT22;1333;50.958;6.770;2023-09-08T13:39:49;60.20;17.10
2647;DHT22;1333;50.958;6.770;2023-09-08T13:42:14;60.20;17.30
2647;DHT22;1333;50.958;6.770;2023-09-08T13:44:40;60.30;17.10
2647;DHT22;1333;50.958;6.770;2023-09-08T13:47:05;60.30;16.90
2647;DHT22;1333;50.958;6.770;2023-09-08T13:49:31;60.30;16.80
2647;DHT22;1333;50.958;6.770;2023-09-08T13:51:56;60.30;17.00
2647;DHT22;1333;50.958;6.770;2023-09-08T13:54:22;60.10;17.20
2647;DHT22;1333;50.958;6.770;2023-09-08T13:57:00;60.00;17.30
2647;DHT22;1333;50.958;6.770;2023-09-08T13:59:27;59.50;16.20
2647;DHT22;1333;50.958;6.770;2023-09-08T14:01:54;58.50;16.00
2647;DHT22;1333;50.958;6.770;2023-09-08T14:04:19;57.90;17.20
2647;DHT22;1333;50.958;6.770;2023-09-08T14:06:45;57.80;17.90
2647;DHT22;1333;50.958;6.770;2023-09-08T14:09:10;57.80;18.20
2647;DHT22;1333;50.958;6.770;2023-09-08T14:11:36;57.70;17.70
2647;DHT22;1333;50.958;6.770;2023-09-08T14:14:02;57.50;17.50
2647;DHT22;1333;50.958;6.770;2023-09-08T14:16:28;57.30;17.40
2647;DHT22;1333;50.958;6.770;2023-09-08T14:18:54;57.20;18.00
2647;DHT22;1333;50.958;6.770;2023-09-08T14:21:20;57.00;17.80
2647;DHT22;1333;50.958;6.770;2023-09-08T14:23:46;56.80;17.40
2647;DHT22;1333;50.958;6.770;2023-09-08T14:26:11;56.50;17.90
2647;DHT22;1333;50.958;6.770;2023-09-08T14:28:37;56.30;18.00
2647;DHT22;1333;50.958;6.770;2023-09-08T14:31:02;55.40;17.10
2647;DHT22;1333;50.958;6.770;2023-09-08T14:33:28;55.10;18.30
2647;DHT22;1333;50.958;6.770;2023-09-08T14:35:54;54.80;18.50
2647;DHT22;1333;50.958;6.770;2023-09-08T14:38:21;54.60;19.10
2647;DHT22;1333;50.958;6.770;2023-09-08T14:41:00;54.40;19.10
2647;DHT22;1333;50.958;6.770;2023-09-08T14:43:27;53.80;18.30
2647;DHT22;1333;50.958;6.770;2023-09-08T14:45:53;53.40;19.20
2647;DHT22;1333;50.958;6.770;2023-09-08T14:48:19;53.20;19.50
2647;DHT22;1333;50.958;6.770;2023-09-08T14:50:45;52.80;19.70
2647;DHT22;1333;50.958;6.770;2023-09-08T14:53:11;51.70;19.20
2647;DHT22;1333;50.958;6.770;2023-09-08T14:55:36;50.30;20.00
2647;DHT22;1333;50.958;6.770;2023-09-08T14:58:02;48.70;21.10
2647;DHT22;1333;50.958;6.770;2023-09-08T15:00:28;47.10;22.10
2647;DHT22;1333;50.958;6.770;2023-09-08T15:02:53;45.40;22.20
2647;DHT22;1333;50.958;6.770;2023-09-08T15:05:19;44.10;24.00
2647;DHT22;1333;50.958;6.770;2023-09-08T15:07:44;43.00;25.20
2647;DHT22;1333;50.958;6.770;2023-09-08T15:10:10;42.10;26.30
2647;DHT22;1333;50.958;6.770;2023-09-08T15:12:36;41.20;27.70
2647;DHT22;1333;50.958;6.770;2023-09-08T15:15:01;40.40;28.30
2647;DHT22;1333;50.958;6.770;2023-09-08T15:17:28;39.50;28.20
2647;DHT22;1333;50.958;6.770;2023-09-08T15:19:54;38.60;28.60
2647;DHT22;1333;50.958;6.770;2023-09-08T15:22:19;38.00;29.80
2647;DHT22;1333;50.958;6.770;2023-09-08T15:24:45;37.50;30.70
2647;DHT22;1333;50.958;6.770;2023-09-08T15:27:10;37.10;31.80
2647;DHT22;1333;50.958;6.770;2023-09-08T15:29:36;36.70;31.90
2647;DHT22;1333;50.958;6.770;2023-09-08T15:32:01;36.30;32.20
2647;DHT22;1333;50.958;6.770;2023-09-08T15:34:28;36.00;32.70
2647;DHT22;1333;50.958;6.770;2023-09-08T15:36:54;35.70;33.30
2647;DHT22;1333;50.958;6.770;2023-09-08T15:39:20;35.40;33.90
2647;DHT22;1333;50.958;6.770;2023-09-08T15:41:46;35.10;34.60
2647;DHT22;1333;50.958;6.770;2023-09-08T15:44:12;34.90;34.90
2647;DHT22;1333;50.958;6.770;2023-09-08T15:46:39;34.70;35.40
2647;DHT22;1333;50.958;6.770;2023-09-08T15:49:05;34.40;35.50
2647;DHT22;1333;50.958;6.770;2023-09-08T15:51:30;34.20;35.70
2647;DHT22;1333;50.958;6.770;2023-09-08T15:53:56;34.00;35.90
2647;DHT22;1333;50.958;6.770;2023-09-08T15:56:21;33.80;36.10
2647;DHT22;1333;50.958;6.770;2023-09-08T15:58:47;33.70;36.30
2647;DHT22;1333;50.958;6.770;2023-09-08T16:01:12;33.50;36.40
2647;DHT22;1333;50.958;6.770;2023-09-08T16:03:39;33.40;37.70
2647;DHT22;1333;50.958;6.770;2023-09-08T16:06:04;33.20;38.20
2647;DHT22;1333;50.958;6.770;2023-09-08T16:08:30;33.10;38.50